createdAt,value
2019-02-17T00:00:37.636Z,21.60
2019-02-17T00:03:06.881Z,21.60
2019-02-17T00:05:35.936Z,19.80
2019-02-17T00:08:05.010Z,20.97
2019-02-17T00:10:34.096Z,20.47
2019-02-17T00:13:03.211Z,19.93
2019-02-17T00:15:32.294Z,24.17
2019-02-17T00:18:01.394Z,19.13
2019-02-17T00:20:30.506Z,18.63
2019-02-17T00:22:59.584Z,19.13
2019-02-17T00:25:28.788Z,19.23
2019-02-17T00:27:57.951Z,17.63
2019-02-17T00:30:27.068Z,20.43
2019-02-17T00:32:56.161Z,20.60
2019-02-17T00:35:25.274Z,18.80
2019-02-17T00:37:54.391Z,21.40
2019-02-17T00:40:23.495Z,21.03
2019-02-17T00:42:52.615Z,20.73
2019-02-17T00:45:21.737Z,18.70
2019-02-17T00:47:50.849Z,19.07
2019-02-17T00:50:20.084Z,20.33
2019-02-17T00:52:49.186Z,19.47
2019-02-17T00:55:18.419Z,21.23
2019-02-17T00:57:47.501Z,17.90
2019-02-17T01:00:16.700Z,18.30
2019-02-17T01:02:45.792Z,19.00
2019-02-17T01:05:14.929Z,17.27
2019-02-17T01:07:44.001Z,19.57
2019-02-17T01:10:13.157Z,20.17
2019-02-17T01:12:42.201Z,22.07
2019-02-17T01:15:11.349Z,20.47
2019-02-17T01:17:40.619Z,19.43
2019-02-17T01:20:10.020Z,21.80
2019-02-17T01:22:39.102Z,19.73
2019-02-17T01:25:08.443Z,22.50
2019-02-17T01:27:37.642Z,19.93
2019-02-17T01:30:07.283Z,18.33
2019-02-17T01:32:36.358Z,19.57
2019-02-17T01:35:05.618Z,19.13
2019-02-17T01:37:34.846Z,17.37
2019-02-17T01:40:04.391Z,19.40
2019-02-17T01:42:33.582Z,18.80
2019-02-17T01:45:02.759Z,20.53
2019-02-17T01:47:31.875Z,19.03
2019-02-17T01:50:00.942Z,18.93
2019-02-17T01:52:30.007Z,20.20
2019-02-17T01:54:59.092Z,24.03
2019-02-17T01:57:28.207Z,19.87
2019-02-17T01:59:57.331Z,19.73
2019-02-17T02:02:26.428Z,21.27
2019-02-17T02:04:55.520Z,18.43
2019-02-17T02:07:24.702Z,21.77
2019-02-17T02:09:53.783Z,20.23
2019-02-17T02:12:22.971Z,21.90
2019-02-17T02:14:52.048Z,21.30
2019-02-17T02:17:21.115Z,19.40
2019-02-17T02:19:50.208Z,17.10
2019-02-17T02:22:19.346Z,20.53
2019-02-17T02:24:48.467Z,18.10
2019-02-17T02:27:17.653Z,18.73
2019-02-17T02:29:46.839Z,16.87
2019-02-17T02:32:15.919Z,19.57
2019-02-17T02:34:45.051Z,20.60
2019-02-17T02:37:14.190Z,18.97
2019-02-17T02:39:43.264Z,18.03
2019-02-17T02:42:12.279Z,16.07
2019-02-17T02:44:41.377Z,19.30
2019-02-17T02:47:10.444Z,20.40
2019-02-17T02:49:39.541Z,15.40
2019-02-17T02:52:08.924Z,18.03
2019-02-17T02:54:38.114Z,18.97
2019-02-17T02:57:07.253Z,18.03
2019-02-17T02:59:36.349Z,16.87
2019-02-17T03:02:05.563Z,17.10
2019-02-17T03:04:34.618Z,20.70
2019-02-17T03:07:06.376Z,19.13
2019-02-17T09:57:01.594Z,17.17
2019-02-17T09:59:30.754Z,15.77
2019-02-17T10:01:59.995Z,17.80
2019-02-17T10:04:29.113Z,17.37
2019-02-17T10:06:58.282Z,16.70
2019-02-17T10:09:27.374Z,16.33
2019-02-17T10:11:56.403Z,20.57
2019-02-17T10:14:25.456Z,17.10
2019-02-17T10:16:54.520Z,19.43
2019-02-17T10:19:23.663Z,16.37
2019-02-17T10:21:52.721Z,16.10
2019-02-17T10:24:21.911Z,15.27
2019-02-17T10:26:50.995Z,15.50
2019-02-17T10:29:20.241Z,15.53
2019-02-17T10:31:49.403Z,17.30
2019-02-17T10:34:18.562Z,16.73
2019-02-17T10:36:47.987Z,18.17
2019-02-17T10:39:17.068Z,17.43
2019-02-17T10:41:46.216Z,15.60
2019-02-17T10:44:15.313Z,15.20
2019-02-17T10:46:44.511Z,15.17
2019-02-17T10:49:13.774Z,16.07
2019-02-17T10:51:42.863Z,14.28
2019-02-17T10:54:11.948Z,16.23
2019-02-17T10:56:41.241Z,14.58
2019-02-17T10:59:10.355Z,15.20
2019-02-17T11:01:40.817Z,15.78
2019-02-17T11:04:11.615Z,15.55
2019-02-17T11:06:40.771Z,15.83
2019-02-17T11:09:18.978Z,15.03
2019-02-17T11:11:48.187Z,14.63
2019-02-17T11:14:17.415Z,15.30
2019-02-17T11:16:46.998Z,14.63
2019-02-17T11:19:16.459Z,14.30
2019-02-17T11:21:45.672Z,15.50
2019-02-17T11:24:14.858Z,13.25
2019-02-17T11:26:44.029Z,14.73
2019-02-17T11:29:13.130Z,13.13
2019-02-17T11:31:42.238Z,14.47
2019-02-17T11:34:11.338Z,15.15
2019-02-17T11:36:40.533Z,12.45
2019-02-17T11:39:17.371Z,13.00
2019-02-17T11:41:46.492Z,12.98
2019-02-17T11:44:15.675Z,39.33
2019-02-17T11:46:44.824Z,46.08
2019-02-17T11:49:13.909Z,12.60
2019-02-17T11:51:43.046Z,13.38
2019-02-17T11:54:12.101Z,12.65
2019-02-17T11:56:41.234Z,13.38
2019-02-17T11:59:10.320Z,12.95
2019-02-17T12:01:39.517Z,12.65
2019-02-17T12:04:08.680Z,12.73
2019-02-17T12:06:37.775Z,12.23
2019-02-17T12:09:08.145Z,11.33
2019-02-17T12:11:37.337Z,11.88
2019-02-17T12:14:06.504Z,11.97
2019-02-17T12:16:37.268Z,11.93
2019-02-17T12:19:06.534Z,18.70
2019-02-17T12:21:41.105Z,13.78
2019-02-17T12:24:18.701Z,13.58
2019-02-17T12:27:09.913Z,13.18
2019-02-17T12:29:51.038Z,15.58
2019-02-17T12:32:22.844Z,19.85
2019-02-17T12:34:51.927Z,12.88
2019-02-17T12:37:21.046Z,11.78
2019-02-17T12:39:50.231Z,12.37
2019-02-17T12:42:19.737Z,11.95
2019-02-17T12:44:49.006Z,15.25
2019-02-17T12:47:18.191Z,14.38
2019-02-17T12:49:47.371Z,15.65
2019-02-17T12:52:16.602Z,11.85
2019-02-17T12:54:46.025Z,13.70
2019-02-17T12:57:15.111Z,12.85
2019-02-17T12:59:44.196Z,13.38
2019-02-17T13:02:13.342Z,12.43
2019-02-17T13:04:42.482Z,11.93
2019-02-17T13:07:11.688Z,11.73
2019-02-17T13:09:40.755Z,12.10
2019-02-17T13:12:09.846Z,11.77
2019-02-17T13:14:38.863Z,11.50
2019-02-17T13:17:08.026Z,11.93
2019-02-17T13:19:37.131Z,16.13
2019-02-17T13:22:06.211Z,11.33
2019-02-17T13:24:35.219Z,14.03
2019-02-17T13:27:04.314Z,16.33
2019-02-17T13:29:33.433Z,13.23
2019-02-17T13:32:02.573Z,15.23
2019-02-17T13:34:31.605Z,13.97
2019-02-17T13:37:00.731Z,11.83
2019-02-17T13:39:29.768Z,18.03
2019-02-17T13:41:58.861Z,11.03
2019-02-17T13:44:27.935Z,9.93
2019-02-17T13:46:57.026Z,11.70
2019-02-17T13:49:26.089Z,10.90
2019-02-17T13:51:55.375Z,11.10
2019-02-17T13:54:24.438Z,14.27
2019-02-17T13:56:53.551Z,9.20
2019-02-17T13:59:22.643Z,11.97
2019-02-17T14:01:52.249Z,11.17
2019-02-17T14:04:21.309Z,9.93
2019-02-17T14:06:51.759Z,14.53
2019-02-17T14:09:20.958Z,13.23
2019-02-17T14:11:50.004Z,9.33
2019-02-17T14:14:19.060Z,8.60
2019-02-17T14:16:48.173Z,10.87
2019-02-17T14:19:17.258Z,9.20
2019-02-17T14:21:46.334Z,10.40
2019-02-17T14:24:15.415Z,9.77
2019-02-17T14:26:44.537Z,12.80
2019-02-17T14:29:13.623Z,9.17
2019-02-17T14:31:42.698Z,9.23
2019-02-17T14:34:11.807Z,9.77
2019-02-17T14:36:40.903Z,8.97
2019-02-17T14:39:09.908Z,9.47
2019-02-17T14:41:38.963Z,8.93
2019-02-17T14:44:08.021Z,8.93
2019-02-17T14:46:37.067Z,9.00
2019-02-17T14:49:06.221Z,8.50
2019-02-17T14:51:35.242Z,11.37
2019-02-17T14:54:06.566Z,8.27
2019-02-17T14:56:35.138Z,9.80
2019-02-17T14:59:04.214Z,8.47
2019-02-17T15:01:33.272Z,7.90
2019-02-17T15:04:08.818Z,8.90
2019-02-17T15:06:33.120Z,8.17
2019-02-17T15:09:02.184Z,9.30
2019-02-17T15:11:31.195Z,9.83
2019-02-17T15:14:00.232Z,8.07
2019-02-17T15:16:29.289Z,9.60
2019-02-17T15:18:58.357Z,8.43
2019-02-17T15:21:27.370Z,8.83
2019-02-17T15:23:56.436Z,8.03
2019-02-17T15:26:25.483Z,9.50
2019-02-17T15:28:54.551Z,8.23
2019-02-17T15:31:23.621Z,8.00
2019-02-17T15:33:52.684Z,7.17
2019-02-17T15:36:21.711Z,7.80
2019-02-17T15:38:50.819Z,8.13
2019-02-17T15:41:19.880Z,8.73
2019-02-17T15:43:48.973Z,12.23
2019-02-17T15:46:17.963Z,8.10
2019-02-17T15:48:47.007Z,9.67
2019-02-17T15:51:16.124Z,9.03
2019-02-17T15:53:45.249Z,6.73
2019-02-17T15:56:14.330Z,8.40
2019-02-17T15:58:44.975Z,9.53
2019-02-17T16:01:14.172Z,6.20
2019-02-17T16:03:44.946Z,6.97
2019-02-17T16:06:14.462Z,7.60
2019-02-17T16:08:43.496Z,6.67
2019-02-17T16:11:12.573Z,8.67
2019-02-17T16:13:41.735Z,6.60
2019-02-17T16:16:10.715Z,6.20
2019-02-17T16:18:39.769Z,7.07
2019-02-17T16:21:08.851Z,6.90
2019-02-17T16:23:37.873Z,8.70
2019-02-17T16:26:06.881Z,7.27
2019-02-17T16:28:35.969Z,7.47
2019-02-17T16:31:05.102Z,6.17
2019-02-17T16:33:34.155Z,6.73
2019-02-17T16:36:03.291Z,7.17
2019-02-17T16:38:32.524Z,6.67
2019-02-17T16:41:01.610Z,6.87
2019-02-17T16:43:30.687Z,5.67
2019-02-17T16:45:59.774Z,10.40
2019-02-17T16:48:28.865Z,6.43
2019-02-17T16:50:57.909Z,6.77
2019-02-17T16:53:26.952Z,6.73
2019-02-17T16:55:56.002Z,6.93
2019-02-17T16:58:25.083Z,6.70
2019-02-17T17:00:54.119Z,8.23
2019-02-17T17:03:23.289Z,6.73
2019-02-17T17:05:52.319Z,6.40
2019-02-17T17:08:21.387Z,6.43
2019-02-17T17:10:50.514Z,6.60
2019-02-17T17:13:19.570Z,6.53
2019-02-17T17:15:48.647Z,7.40
2019-02-17T17:18:17.786Z,6.20
2019-02-17T17:20:46.999Z,7.47
2019-02-17T17:23:16.100Z,5.50
2019-02-17T17:25:45.196Z,6.83
2019-02-17T17:28:14.398Z,7.23
2019-02-17T17:30:43.385Z,6.13
2019-02-17T17:33:12.610Z,6.70
2019-02-17T17:35:41.633Z,6.63
2019-02-17T17:38:10.708Z,6.93
2019-02-17T17:40:39.747Z,6.83
2019-02-17T17:43:08.804Z,6.27
2019-02-17T17:45:37.865Z,6.20
2019-02-17T17:48:06.918Z,6.33
2019-02-17T17:50:35.969Z,7.57
2019-02-17T17:53:05.042Z,6.97
2019-02-17T17:55:34.184Z,7.20
2019-02-17T17:58:03.192Z,6.77
2019-02-17T18:00:33.649Z,6.53
2019-02-17T18:03:02.693Z,6.30
2019-02-17T18:05:31.800Z,7.20
2019-02-17T18:08:00.872Z,7.60
2019-02-17T18:10:30.004Z,6.40
2019-02-17T18:12:59.005Z,6.27
2019-02-17T18:15:28.036Z,8.57
2019-02-17T18:17:57.096Z,7.03
2019-02-17T18:20:26.171Z,8.70
2019-02-17T18:22:55.236Z,6.63
2019-02-17T18:25:24.297Z,7.40
2019-02-17T18:27:53.359Z,6.60
2019-02-17T18:30:22.574Z,6.33
2019-02-17T18:32:51.657Z,8.60
2019-02-17T18:35:20.955Z,6.70
2019-02-17T18:37:50.025Z,6.97
2019-02-17T18:40:19.150Z,6.93
2019-02-17T18:42:48.207Z,6.40
2019-02-17T18:45:17.245Z,6.93
2019-02-17T18:47:46.420Z,6.57
2019-02-17T18:50:15.492Z,6.90
2019-02-17T18:52:44.524Z,6.30
2019-02-17T18:55:13.666Z,6.63
2019-02-17T18:57:49.422Z,8.10
2019-02-17T19:00:14.609Z,9.10
2019-02-17T19:02:43.657Z,7.90
2019-02-17T19:05:13.582Z,7.23
2019-02-17T19:07:43.397Z,6.90
2019-02-17T19:10:12.903Z,6.93
2019-02-17T19:12:42.105Z,7.37
2019-02-17T19:15:12.318Z,7.33
2019-02-17T19:17:41.340Z,7.03
2019-02-17T19:20:12.397Z,8.30
2019-02-17T19:22:41.524Z,6.77
2019-02-17T19:25:10.661Z,7.50
2019-02-17T19:27:39.729Z,7.40
2019-02-17T19:30:09.711Z,7.50
2019-02-17T19:32:38.761Z,6.40
2019-02-17T19:35:10.080Z,8.10
2019-02-17T19:37:39.994Z,9.53
2019-02-17T19:40:10.555Z,8.87
2019-02-17T19:42:39.671Z,7.77
2019-02-17T19:45:09.771Z,8.43
2019-02-17T19:47:39.030Z,8.47
2019-02-17T19:50:09.401Z,7.93
2019-02-17T19:52:38.694Z,8.63
2019-02-17T19:55:07.979Z,7.30
2019-02-17T19:57:37.181Z,7.13
2019-02-17T20:00:06.945Z,6.90
2019-02-17T20:02:47.638Z,8.50
2019-02-17T20:05:18.664Z,7.17
2019-02-17T20:07:47.724Z,8.60
2019-02-17T20:10:16.758Z,9.43
2019-02-17T20:12:45.819Z,9.07
2019-02-17T20:15:15.036Z,7.40
2019-02-17T20:17:44.315Z,9.37
2019-02-17T20:20:13.506Z,7.90
2019-02-17T20:22:42.638Z,6.87
2019-02-17T20:25:11.729Z,7.53
2019-02-17T20:27:40.793Z,9.57
2019-02-17T20:30:10.356Z,7.13
2019-02-17T20:32:39.453Z,7.30
2019-02-17T20:35:08.545Z,7.83
2019-02-17T20:37:37.681Z,7.70
2019-02-17T20:40:07.350Z,8.00
2019-02-17T20:42:36.511Z,6.77
2019-02-17T20:45:05.907Z,9.53
2019-02-17T20:47:34.982Z,7.33
2019-02-17T20:50:04.247Z,7.03
2019-02-17T20:52:33.355Z,9.97
2019-02-17T20:55:02.387Z,7.33
2019-02-17T20:57:31.524Z,7.27
2019-02-17T21:00:00.644Z,7.73
2019-02-17T21:02:29.741Z,8.10
2019-02-17T21:04:58.836Z,7.17
2019-02-17T21:07:27.930Z,6.93
2019-02-17T21:09:57.011Z,8.00
2019-02-17T21:12:26.150Z,7.80
2019-02-17T21:14:55.209Z,7.80
2019-02-17T21:17:24.313Z,8.37
2019-02-17T21:19:53.349Z,7.40
2019-02-17T21:22:22.402Z,7.87
2019-02-17T21:24:51.561Z,7.97
2019-02-17T21:27:20.652Z,10.87
2019-02-17T21:29:49.730Z,7.73
2019-02-17T21:32:18.895Z,7.53
2019-02-17T21:34:47.974Z,7.13
2019-02-17T21:37:17.031Z,7.73
2019-02-17T21:39:46.274Z,7.43
2019-02-17T21:42:15.349Z,6.87
2019-02-17T21:44:44.392Z,9.23
2019-02-17T21:47:13.446Z,7.23
2019-02-17T21:49:42.553Z,7.67
2019-02-17T21:52:11.636Z,12.07
2019-02-17T21:54:40.694Z,9.60
2019-02-17T21:57:09.785Z,8.20
2019-02-17T21:59:38.826Z,8.20
2019-02-17T22:02:07.873Z,6.83
2019-02-17T22:04:36.951Z,11.37
2019-02-17T22:07:06.054Z,8.60
2019-02-17T22:09:35.095Z,9.17
2019-02-17T22:12:04.203Z,6.90
2019-02-17T22:14:33.222Z,8.03
2019-02-17T22:17:02.273Z,10.30
2019-02-17T22:19:31.351Z,8.67
2019-02-17T22:22:00.386Z,7.83
2019-02-17T22:24:29.419Z,7.37
2019-02-17T22:26:58.514Z,7.93
2019-02-17T22:29:27.610Z,8.63
2019-02-17T22:31:56.599Z,8.23
2019-02-17T22:34:25.705Z,12.57
2019-02-17T22:36:54.980Z,8.00
2019-02-17T22:39:24.044Z,8.23
2019-02-17T22:42:01.959Z,8.93
2019-02-17T22:44:31.077Z,9.40
2019-02-17T22:47:00.138Z,9.03
2019-02-17T22:49:29.185Z,9.73
2019-02-17T22:51:58.333Z,7.03
2019-02-17T22:54:27.409Z,7.63
2019-02-17T22:56:56.520Z,8.77
2019-02-17T22:59:25.652Z,7.83
2019-02-17T23:01:54.795Z,8.10
2019-02-17T23:04:23.917Z,7.90
2019-02-17T23:06:54.395Z,9.90
2019-02-17T23:09:23.957Z,7.53
2019-02-17T23:11:52.996Z,7.57
2019-02-17T23:14:22.178Z,8.43
2019-02-17T23:16:51.198Z,8.23
2019-02-17T23:19:20.329Z,9.00
2019-02-17T23:21:49.615Z,9.23
2019-02-17T23:24:18.792Z,8.43
2019-02-17T23:26:49.898Z,9.00
2019-02-17T23:29:18.903Z,10.23
2019-02-17T23:31:47.979Z,8.30
2019-02-17T23:34:17.051Z,7.83
2019-02-17T23:36:46.087Z,7.17
2019-02-17T23:39:15.158Z,10.20
2019-02-17T23:41:44.295Z,11.03
2019-02-17T23:44:13.381Z,11.20
2019-02-17T23:46:42.626Z,11.60
2019-02-17T23:49:11.700Z,8.57
2019-02-17T23:51:40.906Z,7.73
2019-02-17T23:54:10.014Z,8.33
2019-02-17T23:56:39.397Z,8.93
2019-02-17T23:59:08.527Z,10.00
